Time;durP1;ratioP1;P1;durP2;ratioP2;P2;SDS_P1;SDS_P2;PMS_P1;PMS_P2;Temp;Humidity;BMP_temperature;BMP_pressure;BME280_temperature;BME280_humidity;BME280_pressure;Samples;Min_cycle;Max_cycle;Signal;HPM_P1;HPM_P2
2023/12/23 00:00:36;;;;;;;11.40;6.93;;;;;;;;;;10192675;28;20050;-70
2023/12/23 00:05:33;;;;;;;18.73;7.18;;;;;;;;;;10189068;28;20050;-69
2023/12/23 00:10:29;;;;;;;13.10;6.70;;;;;;;;;;10193384;28;20045;-70
2023/12/23 00:15:26;;;;;;;7.68;5.68;;;;;;;;;;10186933;28;20103;-70
2023/12/23 00:20:22;;;;;;;8.32;5.47;;;;;;;;;;10196465;28;20053;-70
2023/12/23 00:25:18;;;;;;;12.52;6.90;;;;;;;;;;10200079;28;20843;-70
2023/12/23 00:30:15;;;;;;;6.90;4.75;;;;;;;;;;10196940;28;20076;-71
2023/12/23 00:35:12;;;;;;;9.90;5.53;;;;;;;;;;10206160;28;20053;-70
2023/12/23 00:40:09;;;;;;;9.57;5.63;;;;;;;;;;10203340;28;20413;-69
2023/12/23 00:45:05;;;;;;;7.13;5.35;;;;;;;;;;10198843;28;20413;-70
2023/12/23 00:50:02;;;;;;;16.35;5.85;;;;;;;;;;10195244;28;20520;-70
2023/12/23 00:54:58;;;;;;;10.45;5.50;;;;;;;;;;10183291;28;20050;-70
2023/12/23 00:59:55;;;;;;;9.85;4.90;;;;;;;;;;10206350;28;20536;-71
2023/12/23 01:04:54;;;;;;;5.82;5.22;;;;;;;;;;10189913;28;20052;-71
2023/12/23 01:09:50;;;;;;;9.20;5.55;;;;;;;;;;10196080;28;20410;-71
2023/12/23 01:14:46;;;;;;;11.45;5.63;;;;;;;;;;10181807;28;20057;-70
2023/12/23 01:19:42;;;;;;;11.18;5.63;;;;;;;;;;10181153;28;20042;-71
2023/12/23 01:24:39;;;;;;;12.27;5.95;;;;;;;;;;10190935;28;20045;-70
2023/12/23 01:29:35;;;;;;;11.48;5.90;;;;;;;;;;10179170;28;20079;-70
2023/12/23 01:34:32;;;;;;;13.75;5.57;;;;;;;;;;10191540;28;20556;-71
2023/12/23 01:39:28;;;;;;;13.63;5.82;;;;;;;;;;10195608;28;20038;-70
2023/12/23 01:44:24;;;;;;;10.68;5.65;;;;;;;;;;10183498;28;20101;-71
2023/12/23 01:49:21;;;;;;;11.13;5.35;;;;;;;;;;10188821;28;20108;-70
2023/12/23 01:54:18;;;;;;;9.07;5.13;;;;;;;;;;10185876;28;20124;-71
2023/12/23 01:59:15;;;;;;;16.75;6.07;;;;;;;;;;10192348;28;20464;-70
2023/12/23 02:04:12;;;;;;;13.45;5.32;;;;;;;;;;10168350;28;20057;-71
2023/12/23 02:09:08;;;;;;;8.88;5.30;;;;;;;;;;10190182;28;20049;-71
2023/12/23 02:14:06;;;;;;;12.65;6.38;;;;;;;;;;10192781;28;20571;-71
2023/12/23 02:19:02;;;;;;;10.27;6.05;;;;;;;;;;10186452;28;20065;-68
2023/12/23 02:23:59;;;;;;;10.60;6.35;;;;;;;;;;10263677;22;20046;-69
2023/12/23 02:28:56;;;;;;;12.23;5.95;;;;;;;;;;10196082;28;20058;-69
2023/12/23 02:33:52;;;;;;;13.70;6.03;;;;;;;;;;10204904;28;20072;-69
2023/12/23 02:38:49;;;;;;;15.65;5.97;;;;;;;;;;10207193;28;20052;-70
2023/12/23 02:43:45;;;;;;;12.88;6.20;;;;;;;;;;10194785;28;20085;-69
2023/12/23 02:48:41;;;;;;;12.73;5.82;;;;;;;;;;10204682;28;20049;-70
2023/12/23 02:53:38;;;;;;;9.85;6.28;;;;;;;;;;10201039;28;20041;-70
2023/12/23 02:58:34;;;;;;;10.52;5.97;;;;;;;;;;10203726;28;20057;-71
2023/12/23 03:03:30;;;;;;;10.60;7.05;;;;;;;;;;10187462;28;20050;-70
2023/12/23 03:08:27;;;;;;;12.02;6.60;;;;;;;;;;10206285;28;20041;-71
2023/12/23 03:13:23;;;;;;;10.32;6.93;;;;;;;;;;10206301;28;20109;-71
2023/12/23 03:18:19;;;;;;;11.45;6.38;;;;;;;;;;10201610;28;20078;-70
2023/12/23 03:23:16;;;;;;;10.65;6.80;;;;;;;;;;10185701;28;20049;-70
2023/12/23 03:28:12;;;;;;;7.63;6.43;;;;;;;;;;10199411;28;20052;-70
2023/12/23 03:33:09;;;;;;;15.77;6.43;;;;;;;;;;10207484;28;20041;-70
2023/12/23 03:38:05;;;;;;;9.82;6.05;;;;;;;;;;10194247;28;20037;-70
2023/12/23 03:43:01;;;;;;;12.13;6.18;;;;;;;;;;10204146;28;20045;-70
2023/12/23 03:47:58;;;;;;;9.85;6.72;;;;;;;;;;10211445;28;20058;-70
2023/12/23 03:52:54;;;;;;;8.10;6.03;;;;;;;;;;10209135;28;20049;-70
2023/12/23 03:57:51;;;;;;;15.70;7.57;;;;;;;;;;10194952;28;20073;-69
2023/12/23 04:02:47;;;;;;;8.13;7.28;;;;;;;;;;10192310;28;20101;-70
2023/12/23 04:07:46;;;;;;;15.82;9.48;;;;;;;;;;10202859;28;20050;-69
2023/12/23 04:12:43;;;;;;;9.00;7.05;;;;;;;;;;10204688;28;20046;-69
2023/12/23 04:17:40;;;;;;;7.82;7.13;;;;;;;;;;10209016;28;20762;-69
2023/12/23 04:22:36;;;;;;;8.68;7.20;;;;;;;;;;10202064;28;20049;-70
2023/12/23 04:27:33;;;;;;;9.48;7.25;;;;;;;;;;10190114;28;20054;-69
2023/12/23 04:32:29;;;;;;;7.55;7.05;;;;;;;;;;10214426;28;20041;-69
2023/12/23 04:37:26;;;;;;;7.95;7.20;;;;;;;;;;10182835;28;20105;-70
2023/12/23 04:42:22;;;;;;;9.70;7.43;;;;;;;;;;10195576;28;20046;-70
2023/12/23 04:47:19;;;;;;;11.77;8.25;;;;;;;;;;10187934;28;20136;-70
2023/12/23 04:52:15;;;;;;;6.90;6.38;;;;;;;;;;10199606;28;20045;-69
2023/12/23 04:57:11;;;;;;;11.30;6.80;;;;;;;;;;10200653;28;20053;-69
2023/12/23 05:02:08;;;;;;;7.30;6.55;;;;;;;;;;10197636;28;20177;-70
2023/12/23 05:07:04;;;;;;;8.60;7.85;;;;;;;;;;10199955;28;20052;-69
2023/12/23 05:12:00;;;;;;;10.25;8.32;;;;;;;;;;10183913;28;20184;-69
2023/12/23 05:16:56;;;;;;;10.02;7.80;;;;;;;;;;10203581;28;20038;-70
2023/12/23 05:21:53;;;;;;;8.88;7.97;;;;;;;;;;10214357;28;20052;-70
2023/12/23 05:26:49;;;;;;;9.93;8.25;;;;;;;;;;10253497;22;20053;-70
2023/12/23 05:31:45;;;;;;;11.07;7.45;;;;;;;;;;10215184;28;20037;-70
2023/12/23 05:36:42;;;;;;;7.50;6.93;;;;;;;;;;10233894;28;20050;-71
2023/12/23 05:41:38;;;;;;;9.80;7.90;;;;;;;;;;10236423;28;20072;-70
2023/12/23 05:46:34;;;;;;;9.57;7.50;;;;;;;;;;10225886;28;20049;-70
2023/12/23 05:51:31;;;;;;;10.60;7.32;;;;;;;;;;10232348;28;20057;-70
2023/12/23 05:56:27;;;;;;;11.30;7.28;;;;;;;;;;10234778;28;20057;-70
2023/12/23 06:01:23;;;;;;;11.07;7.75;;;;;;;;;;10235539;28;20057;-70
2023/12/23 06:06:19;;;;;;;9.48;7.18;;;;;;;;;;10243035;28;20072;-70
2023/12/23 06:11:16;;;;;;;14.57;7.55;;;;;;;;;;10239462;28;20041;-70
2023/12/23 06:16:13;;;;;;;9.75;7.20;;;;;;;;;;10233281;28;20049;-71
2023/12/23 06:21:10;;;;;;;17.13;7.80;;;;;;;;;;10225866;28;20054;-71
2023/12/23 06:26:06;;;;;;;10.85;7.38;;;;;;;;;;10231606;28;20127;-70
2023/12/23 06:31:02;;;;;;;9.65;7.20;;;;;;;;;;10243298;28;20052;-69
2023/12/23 06:35:59;;;;;;;11.68;6.85;;;;;;;;;;10232836;28;20053;-69
2023/12/23 06:40:55;;;;;;;18.45;7.55;;;;;;;;;;10245378;28;20103;-70
2023/12/23 06:45:52;;;;;;;13.82;7.72;;;;;;;;;;10233672;28;20048;-71
2023/12/23 06:50:48;;;;;;;8.63;7.90;;;;;;;;;;10244785;28;20125;-71
2023/12/23 06:55:45;;;;;;;9.43;7.47;;;;;;;;;;10229945;28;20049;-70
2023/12/23 07:00:41;;;;;;;9.98;7.78;;;;;;;;;;10239249;28;20048;-71
2023/12/23 07:05:37;;;;;;;8.85;8.10;;;;;;;;;;10235366;28;20041;-71
2023/12/23 07:10:34;;;;;;;9.00;7.85;;;;;;;;;;10226853;28;20416;-69
2023/12/23 07:15:30;;;;;;;8.60;7.82;;;;;;;;;;10250384;22;20053;-70
2023/12/23 07:20:27;;;;;;;9.55;7.82;;;;;;;;;;10225396;28;20046;-72
2023/12/23 07:25:24;;;;;;;7.75;7.03;;;;;;;;;;10215452;28;20053;-72
2023/12/23 07:30:20;;;;;;;8.15;7.47;;;;;;;;;;10191661;28;20041;-72
2023/12/23 07:35:17;;;;;;;7.60;7.10;;;;;;;;;;10189211;28;20390;-69
2023/12/23 07:40:17;;;;;;;7.95;7.32;;;;;;;;;;10222985;28;20624;-72
2023/12/23 07:45:13;;;;;;;7.68;6.97;;;;;;;;;;10197257;28;20451;-73
2023/12/23 07:50:11;;;;;;;9.13;7.43;;;;;;;;;;10218369;28;20497;-68
2023/12/23 07:55:07;;;;;;;7.80;7.13;;;;;;;;;;10184107;28;20096;-71
2023/12/23 08:00:06;;;;;;;8.38;7.68;;;;;;;;;;10204641;28;20042;-71
2023/12/23 08:05:02;;;;;;;8.90;8.00;;;;;;;;;;10183976;28;20394;-71
2023/12/23 08:10:00;;;;;;;9.27;8.55;;;;;;;;;;10204034;28;20038;-71
2023/12/23 08:14:57;;;;;;;9.32;8.27;;;;;;;;;;10184002;28;20053;-71
2023/12/23 08:19:53;;;;;;;8.82;8.32;;;;;;;;;;10198566;28;20061;-72
2023/12/23 08:24:50;;;;;;;9.23;8.63;;;;;;;;;;10184671;28;20038;-74
2023/12/23 08:29:46;;;;;;;9.85;9.05;;;;;;;;;;10193930;28;20112;-72
2023/12/23 08:34:45;;;;;;;9.27;8.68;;;;;;;;;;10193571;28;20556;-72
2023/12/23 08:39:42;;;;;;;11.00;8.80;;;;;;;;;;10192418;28;20042;-73
2023/12/23 08:44:38;;;;;;;9.13;8.52;;;;;;;;;;10193274;28;20084;-71
2023/12/23 08:49:34;;;;;;;10.02;9.30;;;;;;;;;;10193891;28;20099;-73
2023/12/23 08:54:31;;;;;;;10.32;9.60;;;;;;;;;;10209907;28;20107;-73
2023/12/23 08:59:27;;;;;;;10.25;9.52;;;;;;;;;;10205445;28;20103;-69
2023/12/23 09:04:23;;;;;;;10.90;10.00;;;;;;;;;;10202761;28;20492;-72
2023/12/23 09:09:20;;;;;;;11.93;11.13;;;;;;;;;;10214493;28;20629;-71
2023/12/23 09:14:16;;;;;;;12.88;11.18;;;;;;;;;;10204492;28;20473;-72
2023/12/23 09:19:13;;;;;;;11.43;10.68;;;;;;;;;;10207005;28;20103;-70
2023/12/23 09:24:09;;;;;;;11.52;10.75;;;;;;;;;;10181101;28;20052;-75
2023/12/23 09:29:05;;;;;;;12.57;11.68;;;;;;;;;;10194153;28;20518;-75
2023/12/23 09:34:02;;;;;;;11.90;10.90;;;;;;;;;;10192599;28;20050;-74
2023/12/23 09:38:58;;;;;;;11.95;11.05;;;;;;;;;;10204165;28;20053;-75
2023/12/23 09:43:55;;;;;;;11.18;10.38;;;;;;;;;;10205431;28;20682;-74
2023/12/23 09:48:52;;;;;;;10.50;9.80;;;;;;;;;;10188741;28;20046;-75
2023/12/23 09:54:20;;;;;;;10.40;9.45;;;;;;;;;;10622098;22;20453;-75
2023/12/23 09:59:42;;;;;;;9.23;8.55;;;;;;;;;;10048780;28;20047;-74
2023/12/23 10:04:44;;;;;;;9.15;8.45;;;;;;;;;;10191423;28;20052;-74
2023/12/23 10:10:04;;;;;;;11.52;9.10;;;;;;;;;;10196861;28;20588;-74
2023/12/23 10:15:32;;;;;;;9.80;9.00;;;;;;;;;;10124816;28;20559;-74
2023/12/23 10:27:01;;;;;;;9.73;8.93;;;;;;;;;;10001658;28;20087;-74
2023/12/23 10:56:13;;;;;;;10.05;9.23;;;;;;;;;;9830022;29;20053;-74
2023/12/23 11:01:24;;;;;;;10.15;8.88;;;;;;;;;;9945397;29;20052;-75
2023/12/23 11:06:58;;;;;;;;;;;;;;;;;;;;;
2023/12/23 11:35:22;;;;;;;;;;;;;;;;;;;;;
2023/12/23 11:51:49;;;;;;;9.25;8.35;;;;;;;;;;6565030;25;20047;-72
2023/12/23 11:56:45;;;;;;;8.55;7.93;;;;;;;;;;10339374;28;20044;-74
2023/12/23 12:01:41;;;;;;;9.80;8.90;;;;;;;;;;10351263;28;20048;-77
2023/12/23 17:38:01;;;;;;;10.73;8.93;;;;;;;;;;9727566;22;20054;-77
2023/12/23 17:59:11;;;;;;;9.10;8.20;;;;;;;;;;10627288;22;20061;-77
2023/12/23 18:10:13;;;;;;;9.25;8.35;;;;;;;;;;10151968;28;20502;-77
2023/12/23 19:31:01;;;;;;;10.88;9.38;;;;;;;;;;10006817;29;20551;-76
2023/12/23 21:40:03;;;;;;;11.85;10.85;;;;;;;;;;10696042;22;20509;-74
2023/12/23 23:07:34;;;;;;;12.30;11.20;;;;;;;;;;10346426;22;20057;-76
2023/12/23 23:13:44;;;;;;;;;;;;;;;;;;;;;
2023/12/23 23:19:07;;;;;;;11.53;10.63;;;;;;;;;;10047968;28;20095;-75
2023/12/23 23:45:35;;;;;;;10.00;9.20;;;;;;;;;;10176485;28;20042;-75
2023/12/23 23:50:32;;;;;;;10.75;9.95;;;;;;;;;;10186634;28;20049;-75
